Time;durP1;ratioP1;P1;durP2;ratioP2;P2;SDS_P1;SDS_P2;PMS_P1;PMS_P2;Temp;Humidity;BMP_temperature;BMP_pressure;BME280_temperature;BME280_humidity;BME280_pressure;Samples;Min_cycle;Max_cycle;Signal;HPM_P1;HPM_P2
2021/08/20 00:00:14;;;;;;;5.95;3.50;;;18.60;99.90;;;;;;2071833;28;20030;-69
2021/08/20 00:01:14;;;;;;;5.20;3.55;;;18.60;99.90;;;;;;2072035;28;20025;-69
2021/08/20 00:02:15;;;;;;;4.10;3.08;;;18.60;99.90;;;;;;2071713;28;20466;-69
2021/08/20 00:03:16;;;;;;;4.82;3.45;;;18.60;99.90;;;;;;2071031;28;20022;-69
2021/08/20 00:04:16;;;;;;;3.72;3.10;;;18.50;99.90;;;;;;2071926;28;20050;-69
2021/08/20 00:05:17;;;;;;;5.97;3.78;;;18.50;99.90;;;;;;2070969;28;20022;-69
2021/08/20 00:06:17;;;;;;;5.57;3.17;;;18.50;99.90;;;;;;2071833;28;20445;-69
2021/08/20 00:07:18;;;;;;;6.35;3.20;;;18.50;99.90;;;;;;2071952;28;20025;-69
2021/08/20 00:08:19;;;;;;;4.20;3.20;;;18.50;99.90;;;;;;2071596;28;20026;-69
2021/08/20 00:09:20;;;;;;;7.65;3.72;;;18.50;99.90;;;;;;2072826;28;20042;-69
2021/08/20 00:10:21;;;;;;;4.15;3.45;;;18.40;99.90;;;;;;2079898;28;20104;-69
2021/08/20 00:11:21;;;;;;;4.75;3.35;;;18.40;99.90;;;;;;2075279;28;20034;-69
2021/08/20 00:12:22;;;;;;;5.68;3.70;;;18.40;99.90;;;;;;2071694;28;20018;-69
2021/08/20 00:13:23;;;;;;;7.88;3.85;;;18.40;99.90;;;;;;2071328;28;20378;-69
2021/08/20 00:14:23;;;;;;;4.00;3.60;;;18.40;99.90;;;;;;2072027;28;20554;-69
2021/08/20 00:15:24;;;;;;;4.68;3.80;;;18.40;99.90;;;;;;2071687;28;20090;-69
2021/08/20 00:16:24;;;;;;;5.60;3.83;;;18.40;99.90;;;;;;2071662;28;20791;-69
2021/08/20 00:17:25;;;;;;;6.07;4.68;;;18.40;99.90;;;;;;2071620;28;20100;-69
2021/08/20 00:18:26;;;;;;;5.90;3.33;;;18.30;99.90;;;;;;2071902;28;20466;-69
2021/08/20 00:19:27;;;;;;;4.82;3.90;;;18.30;99.90;;;;;;2071470;28;20446;-69
2021/08/20 00:20:27;;;;;;;5.30;3.28;;;18.30;99.90;;;;;;2071814;28;20394;-69
2021/08/20 00:21:28;;;;;;;8.25;4.40;;;18.30;99.90;;;;;;2071343;28;20092;-69
2021/08/20 00:22:29;;;;;;;5.18;3.80;;;18.30;99.90;;;;;;2071606;28;20033;-69
2021/08/20 00:23:30;;;;;;;4.72;4.22;;;18.30;99.90;;;;;;2071255;28;20076;-69
2021/08/20 00:24:31;;;;;;;5.13;4.32;;;18.30;99.90;;;;;;2071664;28;20092;-69
2021/08/20 00:25:31;;;;;;;4.32;3.47;;;18.30;99.90;;;;;;2072753;28;20038;-69
2021/08/20 00:26:33;;;;;;;5.70;3.80;;;18.20;99.90;;;;;;2071743;28;20058;-69
2021/08/20 00:27:33;;;;;;;4.53;3.97;;;18.20;99.90;;;;;;2071500;28;20022;-69
2021/08/20 00:28:34;;;;;;;4.28;3.63;;;18.20;99.90;;;;;;2071613;28;20113;-69
2021/08/20 00:29:35;;;;;;;6.15;4.38;;;18.20;99.90;;;;;;2071676;28;20108;-69
2021/08/20 00:30:35;;;;;;;4.93;4.28;;;18.20;99.90;;;;;;2071832;28;20130;-69
2021/08/20 00:31:36;;;;;;;8.27;4.85;;;18.20;99.90;;;;;;2071441;28;20113;-69
2021/08/20 00:32:37;;;;;;;8.45;4.25;;;18.30;99.90;;;;;;2071358;28;20647;-69
2021/08/20 00:33:38;;;;;;;5.88;4.30;;;18.20;99.90;;;;;;2071425;28;20022;-69
2021/08/20 00:34:39;;;;;;;5.97;4.78;;;18.20;99.90;;;;;;2071905;28;20026;-69
2021/08/20 00:35:39;;;;;;;5.10;4.60;;;18.20;99.90;;;;;;2071377;28;20045;-69
2021/08/20 00:36:40;;;;;;;5.47;4.35;;;18.20;99.90;;;;;;2071741;28;20105;-69
2021/08/20 00:37:40;;;;;;;6.25;4.75;;;18.20;99.90;;;;;;2071294;28;20026;-69
2021/08/20 00:38:41;;;;;;;5.00;4.47;;;18.20;99.90;;;;;;2071485;28;20061;-69
2021/08/20 00:39:42;;;;;;;5.20;4.40;;;18.20;99.90;;;;;;2071637;28;20036;-69
2021/08/20 00:40:43;;;;;;;5.05;4.32;;;18.20;99.90;;;;;;2071737;28;20393;-69
2021/08/20 00:41:44;;;;;;;6.82;4.93;;;18.20;99.90;;;;;;2072256;28;20069;-69
2021/08/20 00:42:45;;;;;;;6.70;5.47;;;18.20;99.90;;;;;;2071495;28;20053;-69
2021/08/20 00:43:46;;;;;;;5.13;4.47;;;18.20;99.90;;;;;;2071717;28;20112;-69
2021/08/20 00:44:47;;;;;;;6.47;4.10;;;18.20;99.90;;;;;;2071966;28;20064;-69
2021/08/20 00:45:59;;;;;;;7.25;5.25;;;18.20;99.90;;;;;;2071187;28;20470;-69
2021/08/20 00:47:00;;;;;;;10.93;5.43;;;18.20;99.90;;;;;;2071548;28;20036;-69
2021/08/20 00:48:01;;;;;;;5.75;5.22;;;18.10;99.90;;;;;;2071585;28;20030;-69
2021/08/20 00:49:01;;;;;;;6.63;4.70;;;18.10;99.90;;;;;;2071595;28;20104;-69
2021/08/20 00:50:06;;;;;;;5.30;4.80;;;18.10;99.90;;;;;;2071459;28;20029;-69
2021/08/20 00:51:25;;;;;;;4.65;4.25;;;18.10;99.90;;;;;;2071417;28;20025;-69
2021/08/20 00:52:25;;;;;;;5.00;4.53;;;18.10;99.90;;;;;;2071515;28;20433;-69
2021/08/20 00:53:26;;;;;;;7.97;4.95;;;18.10;99.90;;;;;;2071000;28;20030;-69
2021/08/20 00:54:27;;;;;;;5.97;5.10;;;18.10;99.90;;;;;;2071615;28;20423;-69
2021/08/20 00:55:28;;;;;;;8.18;5.05;;;18.10;99.90;;;;;;2071746;28;20361;-69
2021/08/20 00:56:28;;;;;;;7.00;5.70;;;18.10;99.90;;;;;;2071557;28;20034;-69
2021/08/20 00:57:30;;;;;;;5.82;4.95;;;18.20;99.90;;;;;;2071736;28;20034;-69
2021/08/20 00:58:34;;;;;;;5.43;4.68;;;18.10;99.90;;;;;;2072436;28;20635;-69
2021/08/20 00:59:34;;;;;;;5.22;4.65;;;18.20;99.90;;;;;;2071493;28;20662;-69
2021/08/20 01:00:40;;;;;;;6.97;5.63;;;18.20;99.90;;;;;;2071410;28;20112;-69
2021/08/20 01:01:40;;;;;;;6.05;5.10;;;18.10;99.90;;;;;;2071575;28;20108;-69
2021/08/20 01:02:41;;;;;;;8.38;5.68;;;18.10;99.90;;;;;;2070663;28;20030;-69
2021/08/20 01:03:42;;;;;;;7.47;5.55;;;18.10;99.90;;;;;;2071617;28;20722;-69
2021/08/20 01:04:43;;;;;;;6.80;5.22;;;18.20;99.90;;;;;;2071389;28;20026;-69
2021/08/20 01:05:43;;;;;;;7.13;5.82;;;18.10;99.90;;;;;;2071527;28;20454;-69
2021/08/20 01:06:44;;;;;;;6.90;5.53;;;18.10;99.90;;;;;;2070468;28;20026;-69
2021/08/20 01:07:45;;;;;;;6.22;5.60;;;18.10;99.90;;;;;;2071023;28;20069;-69
2021/08/20 01:08:46;;;;;;;6.32;5.72;;;18.10;99.90;;;;;;2063398;28;20031;-69
2021/08/20 01:09:47;;;;;;;7.60;5.18;;;18.10;99.90;;;;;;2067032;28;20030;-69
2021/08/20 01:10:52;;;;;;;7.45;5.70;;;18.10;99.90;;;;;;2070823;28;20030;-69
2021/08/20 01:11:53;;;;;;;7.22;5.18;;;18.10;99.90;;;;;;2071299;28;20022;-69
2021/08/20 01:12:53;;;;;;;6.93;5.70;;;18.20;99.90;;;;;;2071223;28;20033;-69
2021/08/20 01:13:54;;;;;;;6.07;5.35;;;18.10;99.90;;;;;;2071510;28;20062;-69
2021/08/20 01:14:55;;;;;;;9.25;5.20;;;18.10;99.90;;;;;;2072858;28;20034;-69
2021/08/20 01:15:56;;;;;;;5.85;5.25;;;18.20;99.90;;;;;;2071491;28;20046;-69
2021/08/20 01:16:57;;;;;;;6.70;5.50;;;18.10;99.90;;;;;;2073017;28;20026;-69
2021/08/20 01:17:58;;;;;;;7.55;5.40;;;18.10;99.90;;;;;;2072994;28;20392;-69
2021/08/20 01:18:58;;;;;;;7.80;5.40;;;18.10;99.90;;;;;;2073211;28;20385;-69
2021/08/20 01:20:01;;;;;;;7.50;5.78;;;18.10;99.90;;;;;;2072917;28;20030;-69
2021/08/20 01:21:04;;;;;;;8.45;5.22;;;18.10;99.90;;;;;;2073013;28;20080;-69
2021/08/20 01:22:06;;;;;;;7.20;5.82;;;18.10;99.90;;;;;;2072784;28;20033;-69
2021/08/20 01:23:08;;;;;;;8.07;6.00;;;18.10;99.90;;;;;;2071802;28;20030;-69
2021/08/20 01:24:09;;;;;;;6.78;5.50;;;18.10;99.90;;;;;;2072107;28;20096;-69
2021/08/20 01:25:10;;;;;;;8.35;5.38;;;18.10;99.90;;;;;;2066262;28;20489;-69
2021/08/20 01:26:10;;;;;;;7.90;5.57;;;18.10;99.90;;;;;;2069975;28;20053;-69
2021/08/20 01:27:11;;;;;;;7.32;5.32;;;18.10;99.90;;;;;;2072983;28;20224;-69
2021/08/20 01:28:12;;;;;;;6.47;5.28;;;18.10;99.90;;;;;;2072486;28;20037;-69
2021/08/20 01:29:16;;;;;;;5.28;4.45;;;18.10;99.90;;;;;;2072673;28;20022;-69
2021/08/20 01:30:16;;;;;;;5.70;4.80;;;18.10;99.90;;;;;;2073295;28;20101;-69
2021/08/20 01:31:18;;;;;;;5.93;5.32;;;18.10;99.90;;;;;;2072754;28;20041;-69
2021/08/20 01:32:19;;;;;;;7.82;5.60;;;18.10;99.90;;;;;;2073160;28;20033;-69
2021/08/20 01:33:20;;;;;;;5.13;4.63;;;18.10;99.90;;;;;;2072361;28;20029;-69
2021/08/20 01:34:21;;;;;;;6.93;6.13;;;18.10;99.90;;;;;;2072875;28;20075;-69
2021/08/20 01:35:23;;;;;;;6.55;5.75;;;18.00;99.90;;;;;;2072722;28;20030;-69
2021/08/20 01:36:24;;;;;;;6.95;5.82;;;18.00;99.90;;;;;;2073206;28;20494;-69
2021/08/20 01:37:24;;;;;;;6.70;6.00;;;18.00;99.90;;;;;;2072618;28;20375;-70
2021/08/20 01:38:26;;;;;;;7.30;6.22;;;18.00;99.90;;;;;;2072757;28;20041;-69
2021/08/20 01:39:27;;;;;;;6.72;5.68;;;18.00;99.90;;;;;;2072658;28;20025;-69
2021/08/20 01:40:28;;;;;;;6.50;5.88;;;18.00;99.90;;;;;;2072899;28;20041;-69
2021/08/20 01:41:30;;;;;;;6.15;5.55;;;18.00;99.90;;;;;;2072464;28;20160;-69
2021/08/20 01:42:30;;;;;;;6.00;5.40;;;18.00;99.90;;;;;;2073013;28;20466;-69
2021/08/20 01:43:31;;;;;;;7.60;5.80;;;18.00;99.90;;;;;;2072681;28;20371;-69
2021/08/20 01:44:31;;;;;;;6.13;5.63;;;18.00;99.90;;;;;;2076212;28;20377;-69
2021/08/20 01:45:32;;;;;;;5.00;4.47;;;18.00;99.90;;;;;;2074758;28;20038;-69
2021/08/20 01:46:33;;;;;;;7.13;5.97;;;18.00;99.90;;;;;;2072700;28;20018;-69
2021/08/20 01:47:33;;;;;;;6.97;5.60;;;18.00;99.90;;;;;;2072983;28;20022;-69
2021/08/20 01:48:34;;;;;;;5.82;5.22;;;18.00;99.90;;;;;;2072790;28;20105;-69
2021/08/20 01:49:34;;;;;;;8.05;6.20;;;18.00;99.90;;;;;;2073099;28;20489;-69
2021/08/20 01:50:37;;;;;;;8.02;5.82;;;18.00;99.90;;;;;;2072729;28;20026;-69
2021/08/20 01:51:38;;;;;;;6.28;5.60;;;17.90;99.90;;;;;;2069524;28;20420;-69
2021/08/20 01:52:39;;;;;;;7.53;5.20;;;17.90;99.90;;;;;;2065214;28;20093;-69
2021/08/20 01:53:40;;;;;;;6.30;5.03;;;17.90;99.90;;;;;;2072866;28;20029;-69
2021/08/20 01:54:41;;;;;;;5.43;4.65;;;17.90;99.90;;;;;;2065224;28;20363;-69
2021/08/20 01:55:44;;;;;;;4.45;4.05;;;17.90;99.90;;;;;;2072970;28;20054;-69
2021/08/20 01:56:44;;;;;;;6.22;5.30;;;17.90;99.90;;;;;;2072546;28;20394;-69
2021/08/20 01:57:45;;;;;;;6.43;5.35;;;17.90;99.90;;;;;;2072941;28;20025;-69
2021/08/20 01:58:46;;;;;;;7.05;5.10;;;17.90;99.90;;;;;;2079229;28;20118;-69
2021/08/20 01:59:47;;;;;;;6.25;5.65;;;17.90;99.90;;;;;;2072675;28;20041;-69
2021/08/20 02:00:47;;;;;;;5.45;4.95;;;17.90;99.90;;;;;;2072769;28;20053;-69
2021/08/20 02:01:48;;;;;;;6.32;5.63;;;17.80;99.90;;;;;;2072225;28;20029;-69
2021/08/20 02:02:49;;;;;;;6.70;5.80;;;17.90;99.90;;;;;;2072108;28;20025;-69
2021/08/20 02:03:49;;;;;;;8.88;5.65;;;17.80;99.90;;;;;;2072986;28;20030;-69
2021/08/20 02:04:50;;;;;;;6.05;5.35;;;17.80;99.90;;;;;;2072791;28;20101;-69
2021/08/20 02:05:50;;;;;;;5.90;5.25;;;17.90;99.90;;;;;;2072548;28;20025;-69
2021/08/20 02:06:51;;;;;;;6.38;5.07;;;17.80;99.90;;;;;;2072538;28;20488;-70
2021/08/20 02:07:52;;;;;;;7.25;6.30;;;17.90;99.90;;;;;;2072750;28;20033;-69
2021/08/20 02:08:52;;;;;;;6.80;5.78;;;17.80;99.90;;;;;;2072764;28;20040;-69
2021/08/20 02:09:53;;;;;;;6.38;5.68;;;17.80;99.90;;;;;;2072574;28;20026;-69
2021/08/20 02:10:55;;;;;;;8.48;6.13;;;17.90;99.90;;;;;;2072542;28;20029;-69
2021/08/20 02:11:55;;;;;;;6.00;5.40;;;17.90;99.90;;;;;;2075209;28;20493;-69
2021/08/20 02:12:56;;;;;;;6.25;5.65;;;17.90;99.90;;;;;;2076247;28;20402;-69
2021/08/20 02:13:57;;;;;;;6.00;5.40;;;17.80;99.90;;;;;;2072648;28;20026;-69
2021/08/20 02:14:57;;;;;;;8.68;6.35;;;17.80;99.90;;;;;;2072550;28;20029;-69
2021/08/20 02:15:58;;;;;;;5.45;4.95;;;17.90;99.90;;;;;;2072746;28;20026;-69
2021/08/20 02:16:59;;;;;;;5.40;4.90;;;17.90;99.90;;;;;;2072550;28;20101;-70
2021/08/20 02:17:59;;;;;;;6.05;5.32;;;17.90;99.90;;;;;;2072580;28;20088;-69
2021/08/20 02:19:00;;;;;;;6.13;5.00;;;17.80;99.90;;;;;;2072374;28;20486;-69
2021/08/20 02:20:01;;;;;;;6.57;5.43;;;17.90;99.90;;;;;;2072399;28;20029;-69
2021/08/20 02:21:01;;;;;;;7.35;5.68;;;17.90;99.90;;;;;;2072369;28;20029;-69
2021/08/20 02:22:02;;;;;;;6.15;5.53;;;17.90;99.90;;;;;;2072626;28;20026;-69
2021/08/20 02:23:03;;;;;;;5.68;5.05;;;17.90;99.90;;;;;;2072158;28;20026;-69
2021/08/20 02:24:03;;;;;;;6.35;5.50;;;17.90;99.90;;;;;;2070573;28;20359;-69
2021/08/20 02:25:04;;;;;;;5.32;4.80;;;17.90;99.90;;;;;;2072649;28;20093;-69
2021/08/20 02:26:07;;;;;;;5.50;5.00;;;17.90;99.90;;;;;;2072542;28;20080;-70
2021/08/20 02:27:07;;;;;;;6.90;5.15;;;17.90;99.90;;;;;;2072769;28;20521;-69
2021/08/20 02:28:08;;;;;;;5.72;5.18;;;17.90;99.90;;;;;;2071213;28;20620;-69
2021/08/20 02:29:08;;;;;;;7.88;5.68;;;18.00;99.90;;;;;;2071667;28;20058;-69
2021/08/20 02:30:09;;;;;;;5.60;4.32;;;18.00;99.90;;;;;;2066394;28;20025;-69
2021/08/20 02:31:10;;;;;;;5.93;5.32;;;17.90;99.90;;;;;;2072423;28;20095;-69
2021/08/20 02:32:11;;;;;;;6.20;5.18;;;18.00;99.90;;;;;;2072126;28;20076;-69
2021/08/20 02:33:11;;;;;;;7.53;5.28;;;18.00;99.90;;;;;;2071750;28;20446;-70
2021/08/20 02:34:12;;;;;;;5.88;4.93;;;18.00;99.90;;;;;;2072329;28;20096;-69
2021/08/20 02:35:12;;;;;;;7.65;5.15;;;18.00;99.90;;;;;;2076434;28;20030;-69
2021/08/20 02:36:13;;;;;;;6.20;5.63;;;18.00;99.90;;;;;;2072372;28;20485;-69
2021/08/20 02:37:13;;;;;;;7.65;5.43;;;18.00;99.90;;;;;;2072605;28;20033;-69
2021/08/20 02:38:14;;;;;;;5.15;4.70;;;18.00;99.90;;;;;;2072139;28;20083;-69
2021/08/20 02:39:15;;;;;;;6.75;5.80;;;18.00;99.90;;;;;;2072102;28;20382;-70
2021/08/20 02:40:15;;;;;;;7.50;5.53;;;18.00;99.90;;;;;;2072245;28;20076;-69
2021/08/20 02:41:16;;;;;;;5.70;5.28;;;18.00;99.90;;;;;;2072229;28;20351;-69
2021/08/20 02:42:17;;;;;;;5.32;4.93;;;18.00;99.90;;;;;;2071991;28;20371;-69
2021/08/20 02:43:18;;;;;;;5.63;5.13;;;18.00;99.90;;;;;;2072224;28;20080;-69
2021/08/20 02:44:18;;;;;;;6.00;5.20;;;18.00;99.90;;;;;;2072740;28;20052;-69
2021/08/20 02:45:19;;;;;;;5.60;5.07;;;18.00;99.90;;;;;;2072406;28;20022;-69
2021/08/20 02:46:19;;;;;;;6.85;5.35;;;18.00;99.90;;;;;;2072110;28;20492;-69
2021/08/20 02:47:20;;;;;;;7.80;5.70;;;18.00;99.90;;;;;;2071716;28;20030;-69
2021/08/20 02:48:20;;;;;;;7.57;5.43;;;18.10;99.90;;;;;;2071714;28;20025;-69
2021/08/20 02:49:21;;;;;;;6.43;5.72;;;18.10;99.90;;;;;;2074898;28;20029;-69
2021/08/20 02:50:22;;;;;;;7.38;5.85;;;18.10;99.90;;;;;;2074769;28;20018;-69
2021/08/20 02:51:22;;;;;;;8.55;5.68;;;18.00;99.90;;;;;;2072342;28;20056;-69
2021/08/20 02:52:23;;;;;;;6.30;5.70;;;18.00;99.90;;;;;;2072065;28;20026;-69
2021/08/20 02:53:23;;;;;;;6.38;4.88;;;18.00;99.90;;;;;;2071937;28;20026;-69
2021/08/20 02:54:24;;;;;;;5.78;5.03;;;18.00;99.90;;;;;;2072413;28;20026;-69
2021/08/20 02:55:24;;;;;;;7.45;5.78;;;18.00;99.90;;;;;;2072331;28;20071;-69
2021/08/20 02:56:25;;;;;;;6.57;5.82;;;18.00;99.90;;;;;;2072052;28;20026;-69
2021/08/20 02:57:28;;;;;;;8.07;5.85;;;18.00;99.90;;;;;;2072218;28;20033;-69
2021/08/20 02:58:29;;;;;;;6.88;5.63;;;18.00;99.90;;;;;;2072231;28;20040;-69
2021/08/20 02:59:29;;;;;;;6.15;5.55;;;18.00;99.90;;;;;;2072385;28;20041;-69
2021/08/20 03:00:30;;;;;;;7.75;5.43;;;18.00;99.90;;;;;;2072462;28;20036;-69
2021/08/20 03:01:30;;;;;;;8.50;5.75;;;18.10;99.90;;;;;;2071828;28;20026;-69
2021/08/20 03:02:31;;;;;;;8.57;5.85;;;18.00;99.90;;;;;;2071595;28;20201;-70
2021/08/20 03:03:31;;;;;;;8.18;6.13;;;18.00;99.90;;;;;;2072473;28;20028;-69
2021/08/20 03:04:32;;;;;;;6.22;5.65;;;18.10;99.90;;;;;;2072404;28;20073;-69
2021/08/20 03:05:33;;;;;;;6.43;5.78;;;18.10;99.90;;;;;;2072506;28;20038;-69
2021/08/20 03:06:34;;;;;;;9.25;6.07;;;18.10;99.90;;;;;;2072287;28;20900;-70
2021/08/20 03:07:34;;;;;;;6.03;5.47;;;18.10;99.90;;;;;;2072197;28;20029;-69
2021/08/20 03:08:36;;;;;;;7.95;6.10;;;18.10;99.90;;;;;;2072317;28;20026;-69
2021/08/20 03:09:37;;;;;;;10.48;5.57;;;18.10;99.90;;;;;;2072026;28;20037;-69
2021/08/20 03:10:40;;;;;;;7.28;5.55;;;18.10;99.90;;;;;;2072393;28;20025;-69
2021/08/20 03:11:41;;;;;;;7.22;5.80;;;18.10;99.90;;;;;;2071772;28;20524;-69
2021/08/20 03:12:41;;;;;;;9.02;5.65;;;18.10;99.90;;;;;;2072012;28;20444;-69
2021/08/20 03:13:42;;;;;;;5.50;4.65;;;18.10;99.90;;;;;;2071959;28;20028;-69
2021/08/20 03:14:42;;;;;;;5.97;5.30;;;18.10;99.90;;;;;;2072142;28;20104;-69
2021/08/20 03:15:43;;;;;;;7.93;6.32;;;18.10;99.90;;;;;;2072011;28;20076;-69
2021/08/20 03:16:44;;;;;;;6.20;5.38;;;18.10;99.90;;;;;;2075528;28;20107;-69
2021/08/20 03:17:44;;;;;;;7.28;5.93;;;18.10;99.90;;;;;;2075159;28;20060;-69
2021/08/20 03:18:45;;;;;;;5.63;5.10;;;18.10;99.90;;;;;;2072359;28;20026;-69
2021/08/20 03:19:46;;;;;;;6.18;5.68;;;18.10;99.90;;;;;;2072121;28;20848;-69
2021/08/20 03:20:48;;;;;;;8.20;5.25;;;18.10;99.90;;;;;;2072349;28;20790;-69
2021/08/20 03:21:48;;;;;;;8.80;5.53;;;18.00;99.90;;;;;;2071665;28;20041;-69
2021/08/20 03:22:49;;;;;;;6.07;5.25;;;18.00;99.90;;;;;;2074535;28;20025;-69
2021/08/20 03:23:49;;;;;;;6.53;5.93;;;18.00;99.90;;;;;;2079581;28;20033;-69
2021/08/20 03:24:50;;;;;;;6.53;5.75;;;18.00;99.90;;;;;;2070422;28;20121;-69
2021/08/20 03:25:51;;;;;;;7.72;6.43;;;18.00;99.90;;;;;;2070970;28;20413;-69
2021/08/20 03:26:51;;;;;;;7.78;5.45;;;18.00;99.90;;;;;;2072226;28;20046;-69
2021/08/20 03:27:52;;;;;;;6.47;5.60;;;18.00;99.90;;;;;;2071518;28;20473;-69
2021/08/20 03:28:52;;;;;;;7.45;6.07;;;18.00;99.90;;;;;;2072287;28;20108;-69
2021/08/20 03:29:53;;;;;;;5.10;4.70;;;18.00;99.90;;;;;;2071983;28;20061;-69
2021/08/20 03:30:54;;;;;;;9.90;5.55;;;18.00;99.90;;;;;;2073824;28;20046;-69
2021/08/20 03:31:54;;;;;;;6.70;5.30;;;18.00;99.90;;;;;;2071786;28;20059;-69
2021/08/20 03:32:55;;;;;;;5.90;4.97;;;18.00;99.90;;;;;;2071365;28;20084;-69
2021/08/20 03:33:55;;;;;;;5.75;5.25;;;18.00;99.90;;;;;;2066717;28;20022;-69
2021/08/20 03:34:56;;;;;;;6.53;5.68;;;17.90;99.90;;;;;;2071809;28;20033;-69
2021/08/20 03:35:56;;;;;;;6.60;6.00;;;17.90;99.90;;;;;;2072083;28;20032;-69
2021/08/20 03:36:57;;;;;;;7.55;6.38;;;18.00;99.90;;;;;;2071689;28;20104;-69
2021/08/20 03:37:58;;;;;;;7.93;5.82;;;17.90;99.90;;;;;;2071957;28;20052;-69
2021/08/20 03:38:59;;;;;;;8.13;6.68;;;17.90;99.90;;;;;;2071781;28;20069;-69
2021/08/20 03:39:59;;;;;;;7.53;6.20;;;17.90;99.90;;;;;;2071744;28;20584;-69
2021/08/20 03:41:00;;;;;;;9.27;6.13;;;17.90;99.90;;;;;;2070045;28;20026;-69
2021/08/20 03:42:01;;;;;;;7.32;6.70;;;17.90;99.90;;;;;;2072128;28;20057;-69
2021/08/20 03:43:01;;;;;;;7.38;6.68;;;17.90;99.90;;;;;;2079162;28;20028;-69
2021/08/20 03:44:02;;;;;;;10.77;6.72;;;17.90;99.90;;;;;;2073379;28;20026;-69
2021/08/20 03:45:02;;;;;;;7.57;6.43;;;17.90;99.90;;;;;;2071689;28;20036;-69
2021/08/20 03:46:06;;;;;;;7.47;6.32;;;17.90;99.90;;;;;;2071780;28;20029;-69
2021/08/20 03:47:07;;;;;;;9.60;7.03;;;17.90;99.90;;;;;;2071856;28;20482;-69
2021/08/20 03:48:07;;;;;;;6.65;5.97;;;17.90;99.90;;;;;;2072177;28;20355;-69
2021/08/20 03:49:08;;;;;;;11.93;7.10;;;17.80;99.90;;;;;;2071934;28;20030;-69
2021/08/20 03:50:09;;;;;;;8.07;6.45;;;17.80;99.90;;;;;;2071773;28;20504;-69
2021/08/20 03:51:09;;;;;;;7.45;6.53;;;17.80;99.90;;;;;;2071815;28;20034;-69
2021/08/20 03:52:10;;;;;;;7.57;6.22;;;17.80;99.90;;;;;;2071605;28;20033;-69
2021/08/20 03:53:10;;;;;;;9.70;7.25;;;17.80;99.90;;;;;;2071468;28;20029;-69
2021/08/20 03:54:11;;;;;;;8.35;6.65;;;17.80;99.90;;;;;;2072200;28;20032;-69
2021/08/20 03:55:11;;;;;;;7.15;6.45;;;17.80;99.90;;;;;;2071356;28;20485;-69
2021/08/20 03:56:12;;;;;;;8.85;7.93;;;17.80;99.90;;;;;;2073350;28;20026;-69
2021/08/20 03:57:12;;;;;;;8.20;7.40;;;17.80;99.90;;;;;;2071660;28;20068;-69
2021/08/20 03:58:13;;;;;;;9.25;6.28;;;17.80;99.90;;;;;;2071883;28;20029;-69
2021/08/20 03:59:14;;;;;;;9.05;7.75;;;17.80;99.90;;;;;;2071977;28;20513;-69
2021/08/20 04:00:15;;;;;;;7.75;6.97;;;17.80;99.90;;;;;;2072021;28;20625;-69
2021/08/20 04:01:16;;;;;;;9.05;7.55;;;17.80;99.90;;;;;;2071695;28;20026;-69
2021/08/20 04:02:16;;;;;;;7.15;6.15;;;17.80;99.90;;;;;;2071802;28;20033;-69
2021/08/20 04:03:18;;;;;;;9.95;7.75;;;17.80;99.90;;;;;;2071377;28;20022;-69
2021/08/20 04:04:18;;;;;;;8.80;7.88;;;17.80;99.90;;;;;;2071983;28;20482;-69
2021/08/20 04:05:20;;;;;;;8.40;5.90;;;17.80;99.90;;;;;;2071642;28;20093;-69
2021/08/20 04:06:21;;;;;;;7.70;6.90;;;17.80;99.90;;;;;;2071605;28;20018;-69
2021/08/20 04:07:21;;;;;;;9.43;8.05;;;17.80;99.90;;;;;;2071932;28;20045;-69
2021/08/20 04:08:22;;;;;;;8.60;7.75;;;17.70;99.90;;;;;;2071765;28;20037;-69
2021/08/20 04:09:23;;;;;;;8.70;7.72;;;17.80;99.90;;;;;;2071762;28;20459;-69
2021/08/20 04:10:23;;;;;;;8.88;7.95;;;17.70;99.90;;;;;;2077195;28;20056;-69
2021/08/20 04:11:24;;;;;;;11.23;8.73;;;17.70;99.90;;;;;;2075272;28;20049;-69
2021/08/20 04:12:24;;;;;;;8.85;7.20;;;17.70;99.90;;;;;;2071576;28;20450;-69
2021/08/20 04:13:25;;;;;;;8.10;7.20;;;17.80;99.90;;;;;;2071440;28;20044;-69
2021/08/20 04:14:26;;;;;;;9.25;8.35;;;17.70;99.90;;;;;;2072003;28;20026;-69
2021/08/20 04:15:26;;;;;;;11.82;9.25;;;17.70;99.90;;;;;;2071903;28;20029;-69
2021/08/20 04:16:28;;;;;;;11.70;8.75;;;17.70;99.90;;;;;;2073852;28;20105;-69
2021/08/20 04:17:28;;;;;;;11.55;9.35;;;17.70;99.90;;;;;;2071666;28;20029;-69
2021/08/20 04:18:29;;;;;;;9.88;8.82;;;17.70;99.90;;;;;;2071604;28;20066;-69
2021/08/20 04:19:29;;;;;;;11.00;9.85;;;17.70;99.90;;;;;;2071717;28;20034;-69
2021/08/20 04:20:30;;;;;;;10.77;9.77;;;17.70;99.90;;;;;;2071610;28;20045;-69
2021/08/20 04:21:31;;;;;;;11.77;10.30;;;17.70;99.90;;;;;;2071679;28;20034;-69
2021/08/20 04:22:32;;;;;;;13.30;10.55;;;17.70;99.90;;;;;;2071691;28;20044;-69
2021/08/20 04:23:32;;;;;;;10.93;9.77;;;17.70;99.90;;;;;;2071982;28;20030;-69
2021/08/20 04:24:33;;;;;;;10.88;9.77;;;17.70;99.90;;;;;;2073786;28;20037;-69
2021/08/20 04:25:33;;;;;;;13.13;11.82;;;17.70;99.90;;;;;;2071681;28;20034;-69
2021/08/20 04:26:34;;;;;;;11.10;10.00;;;17.70;99.90;;;;;;2071542;28;20077;-69
2021/08/20 04:27:34;;;;;;;13.43;12.07;;;17.70;99.90;;;;;;2071559;28;20639;-69
2021/08/20 04:28:35;;;;;;;14.52;11.45;;;17.60;99.90;;;;;;2071473;28;20053;-69
2021/08/20 04:29:36;;;;;;;13.75;9.98;;;17.60;99.90;;;;;;2071751;28;20030;-69
2021/08/20 04:30:36;;;;;;;14.50;11.77;;;17.60;99.90;;;;;;2071582;28;20030;-69
2021/08/20 04:31:37;;;;;;;13.52;11.10;;;17.60;99.90;;;;;;2071568;28;20025;-69
2021/08/20 04:32:37;;;;;;;12.57;9.32;;;17.60;99.90;;;;;;2071053;28;20026;-69
2021/08/20 04:33:38;;;;;;;14.45;12.02;;;17.60;99.90;;;;;;2071769;28;20033;-69
2021/08/20 04:34:39;;;;;;;12.15;10.88;;;17.60;99.90;;;;;;2071842;28;20034;-69
2021/08/20 04:35:39;;;;;;;10.70;9.55;;;17.60;99.90;;;;;;2075656;28;20033;-69
2021/08/20 04:36:40;;;;;;;14.30;10.93;;;17.60;99.90;;;;;;2079585;28;20030;-69
2021/08/20 04:37:40;;;;;;;13.48;12.00;;;17.60;99.90;;;;;;2072071;28;20470;-70
2021/08/20 04:38:41;;;;;;;13.45;11.82;;;17.60;99.90;;;;;;2071489;28;20079;-69
2021/08/20 04:39:41;;;;;;;11.90;10.57;;;17.60;99.90;;;;;;2071746;28;20033;-69
2021/08/20 04:40:42;;;;;;;12.02;10.82;;;17.60;99.90;;;;;;2071443;28;20185;-69
2021/08/20 04:41:42;;;;;;;10.43;9.38;;;17.60;99.90;;;;;;2071292;28;20666;-69
2021/08/20 04:42:43;;;;;;;12.75;11.23;;;17.60;99.90;;;;;;2071004;28;20157;-69
2021/08/20 04:43:44;;;;;;;12.23;11.02;;;17.60;99.90;;;;;;2071706;28;20026;-69
2021/08/20 04:44:44;;;;;;;12.63;11.32;;;17.60;99.90;;;;;;2071593;28;20126;-69
2021/08/20 04:45:45;;;;;;;13.18;11.52;;;17.50;99.90;;;;;;2071719;28;20489;-69
2021/08/20 04:46:46;;;;;;;14.57;12.73;;;17.50;99.90;;;;;;2071694;28;20100;-69
2021/08/20 04:47:47;;;;;;;12.20;10.77;;;17.50;99.90;;;;;;2071430;28;20029;-69
2021/08/20 04:48:47;;;;;;;15.68;12.48;;;17.50;99.90;;;;;;2071484;28;20033;-69
2021/08/20 04:49:48;;;;;;;11.57;9.88;;;17.50;99.90;;;;;;2078386;28;20097;-69
2021/08/20 04:50:51;;;;;;;11.18;9.90;;;17.50;99.90;;;;;;2072196;28;20034;-69
2021/08/20 04:51:52;;;;;;;10.93;9.82;;;17.50;99.90;;;;;;2073736;28;20071;-69
2021/08/20 04:52:53;;;;;;;13.18;11.80;;;17.50;99.90;;;;;;2074120;28;20155;-69
2021/08/20 04:53:53;;;;;;;12.18;10.93;;;17.50;99.90;;;;;;2074039;28;20029;-69
2021/08/20 04:54:54;;;;;;;12.45;11.07;;;17.50;99.90;;;;;;2074131;28;20025;-69
2021/08/20 04:55:54;;;;;;;14.60;12.23;;;17.50;99.90;;;;;;2074053;28;20026;-69
2021/08/20 04:56:55;;;;;;;10.90;9.80;;;17.50;99.90;;;;;;2071338;28;20030;-69
2021/08/20 04:57:55;;;;;;;13.98;11.20;;;17.50;99.90;;;;;;2074240;28;20072;-69
2021/08/20 04:58:56;;;;;;;14.80;11.93;;;17.50;99.90;;;;;;2074365;28;20509;-69
2021/08/20 04:59:58;;;;;;;12.85;11.65;;;17.50;99.90;;;;;;2074023;28;20390;-69
2021/08/20 05:00:59;;;;;;;13.52;12.18;;;17.50;99.90;;;;;;2074418;28;20037;-69
2021/08/20 05:01:59;;;;;;;12.75;11.45;;;17.50;99.90;;;;;;2073738;28;20026;-69
2021/08/20 05:03:00;;;;;;;12.27;11.07;;;17.50;99.90;;;;;;2074069;28;20068;-69
2021/08/20 05:04:02;;;;;;;22.25;12.35;;;17.50;99.90;;;;;;2074438;28;20030;-69
2021/08/20 05:05:05;;;;;;;13.60;11.65;;;17.50;99.90;;;;;;2074277;28;20022;-69
2021/08/20 05:06:06;;;;;;;13.95;12.02;;;17.60;99.90;;;;;;2073881;28;20124;-69
2021/08/20 05:07:06;;;;;;;14.05;12.55;;;17.60;99.90;;;;;;2074236;28;20043;-69
2021/08/20 05:08:08;;;;;;;14.63;11.32;;;17.60;99.90;;;;;;2074068;28;20057;-69
2021/08/20 05:09:08;;;;;;;12.75;11.07;;;17.60;99.90;;;;;;2074312;28;20033;-69
2021/08/20 05:10:10;;;;;;;17.42;12.80;;;17.60;99.90;;;;;;2074366;28;20057;-69
2021/08/20 05:11:10;;;;;;;12.25;10.95;;;17.60;99.90;;;;;;2074499;28;20750;-69
2021/08/20 05:12:11;;;;;;;17.25;12.85;;;17.60;99.90;;;;;;2073771;28;20036;-69
2021/08/20 05:13:11;;;;;;;18.33;12.20;;;17.60;99.90;;;;;;2073805;28;20037;-69
2021/08/20 05:14:12;;;;;;;14.30;12.73;;;17.60;99.90;;;;;;2073747;28;20022;-69
2021/08/20 05:15:13;;;;;;;13.95;11.40;;;17.60;99.90;;;;;;2073660;28;20033;-69